page 4745 of 1007830 registered users

eBook PostsUsers

  1. 0pvcdrama66 registered @ 2012-12-03 10:29:37, last login @ 2012-12-03 10:29:37
  2. 0grouse0joke registered @ 2012-12-03 10:30:47, last login @ 2012-12-03 10:30:47
  3. 0singer9tent registered @ 2012-12-03 10:32:37, last login @ 2012-12-03 10:32:37
  4. 0needle24orchid registered @ 2012-12-03 10:32:57, last login @ 2012-12-03 10:32:57
  5. 0hubcap4land registered @ 2012-12-03 10:33:32, last login @ 2012-12-03 10:33:32
  6. 0boy79camel registered @ 2012-12-03 10:35:08, last login @ 2012-12-03 10:35:08
  7. 0relishsmash06 registered @ 2012-12-03 10:35:59, last login @ 2012-12-03 10:35:59
  8. 0insect83crate registered @ 2012-12-03 10:36:43, last login @ 2012-12-03 10:36:43
  9. 0winefrown7 registered @ 2012-12-03 10:36:48, last login @ 2012-12-03 10:36:48
  10. 0veilstring21 registered @ 2012-12-03 10:38:33, last login @ 2012-12-03 10:38:33
  11. 0robintent5 registered @ 2012-12-03 10:39:18, last login @ 2012-12-03 10:39:18
  12. 0couch4cousin registered @ 2012-12-03 10:40:00, last login @ 2012-12-03 10:40:00
  13. 0rbossert registered @ 2012-12-03 10:40:03, last login @ 2016-06-25 15:32:23
  14. 0bow7tanker registered @ 2012-12-03 10:41:24, last login @ 2012-12-03 10:41:24
  15. 0waiter43whale registered @ 2012-12-03 10:42:06, last login @ 2012-12-03 10:42:06
  16. 0saveslice78 registered @ 2012-12-03 10:42:07, last login @ 2012-12-03 10:42:07
  17. 0mallet4lift registered @ 2012-12-03 10:43:20, last login @ 2012-12-03 10:43:20
  18. 0butane4rake registered @ 2012-12-03 10:43:48, last login @ 2012-12-03 10:43:48
  19. 0dustshop41 registered @ 2012-12-03 10:43:50, last login @ 2012-12-03 10:43:50
  20. 0onion7mall registered @ 2012-12-03 10:44:34, last login @ 2012-12-03 10:44:34
  21. 0egreenswan48 registered @ 2012-12-03 10:45:02, last login @ 2012-12-03 10:45:02
  22. 0cast77mind registered @ 2012-12-03 10:46:07, last login @ 2012-12-03 10:46:07
  23. 0augustfiber3 registered @ 2012-12-03 10:46:09, last login @ 2012-12-03 10:46:09
  24. 0carp6salad registered @ 2012-12-03 10:46:50, last login @ 2012-12-03 10:46:50
  25. 0root6octave registered @ 2012-12-03 10:47:01, last login @ 2012-12-03 10:47:01
  26. 0thread2plane registered @ 2012-12-03 10:47:34, last login @ 2012-12-03 10:47:34
  27. 0tarekzeyada registered @ 2012-12-03 10:48:51, last login @ 2012-12-03 10:48:51
  28. 0battleshake7 registered @ 2012-12-03 10:49:49, last login @ 2012-12-03 10:49:49
  29. 0chestermatti511 registered @ 2012-12-03 10:50:29, last login @ 2012-12-03 10:50:29
  30. 0fktalf387i registered @ 2012-12-03 10:50:31, last login @ 2012-12-03 10:50:31
  31. 0Sarochan registered @ 2012-12-03 10:50:49, last login @ 2012-12-03 10:50:49
  32. 0crop1saw registered @ 2012-12-03 10:51:12, last login @ 2012-12-03 10:51:12
  33. 0troutthomas9 registered @ 2012-12-03 10:52:25, last login @ 2012-12-03 10:52:25
  34. 0fruit54legal registered @ 2012-12-03 10:53:42, last login @ 2012-12-03 10:53:42
  35. 0enemytheory23 registered @ 2012-12-03 10:54:11, last login @ 2012-12-03 10:54:11
  36. 0cord7bead registered @ 2012-12-03 10:54:13, last login @ 2012-12-03 10:54:13
  37. 0start73market registered @ 2012-12-03 10:54:30, last login @ 2012-12-03 10:54:30
  38. 0Christilion registered @ 2012-12-03 10:54:35, last login @ 2012-12-03 10:54:35
  39. 0bee88son registered @ 2012-12-03 10:54:50, last login @ 2012-12-03 10:54:50
  40. 0rainreward28 registered @ 2012-12-03 10:55:04, last login @ 2012-12-03 10:55:04
  41. 0beef4corn registered @ 2012-12-03 10:55:09, last login @ 2012-12-03 10:55:09
  42. 0hubcapegg40 registered @ 2012-12-03 10:55:37, last login @ 2012-12-03 10:55:37
  43. 0leek24nancy registered @ 2012-12-03 10:57:02, last login @ 2012-12-03 10:57:02
  44. 0head1kitten registered @ 2012-12-03 10:57:35, last login @ 2012-12-03 10:57:35
  45. 0sound24title registered @ 2012-12-03 10:57:44, last login @ 2012-12-03 10:57:44
  46. 0epoxyfloor536 registered @ 2012-12-03 10:58:10, last login @ 2012-12-03 10:58:10
  47. 0partbomber96 registered @ 2012-12-03 10:59:22, last login @ 2012-12-03 10:59:22
  48. 0camelstream65 registered @ 2012-12-03 10:59:24, last login @ 2012-12-03 10:59:24
  49. 0beef9flame registered @ 2012-12-03 11:01:53, last login @ 2012-12-03 11:01:53
  50. 0ronald6maid registered @ 2012-12-03 11:02:00, last login @ 2012-12-03 11:02:00
  51. 0notifypatch00 registered @ 2012-12-03 11:02:10, last login @ 2012-12-03 11:02:10
  52. 0Ocambo registered @ 2012-12-03 11:02:28, last login @ 2012-12-03 11:02:28
  53. 0pillowcone5 registered @ 2012-12-03 11:03:23, last login @ 2012-12-03 11:03:23
  54. 0river3tomato registered @ 2012-12-03 11:03:33, last login @ 2012-12-03 11:03:33
  55. 0scaletalk6 registered @ 2012-12-03 11:06:00, last login @ 2012-12-03 11:06:00
  56. 0design33wash registered @ 2012-12-03 11:07:12, last login @ 2012-12-03 11:07:12
  57. 0locuststorm77 registered @ 2012-12-03 11:07:17, last login @ 2012-12-03 11:07:17
  58. 0purpletulip65 registered @ 2012-12-03 11:07:48, last login @ 2012-12-03 11:07:48
  59. 0yokeslice15 registered @ 2012-12-03 11:07:55, last login @ 2012-12-03 11:07:55
  60. 0sock7ferry registered @ 2012-12-03 11:10:27, last login @ 2012-12-03 11:10:27
  61. 0gliderturnip62 registered @ 2012-12-03 11:10:47, last login @ 2012-12-03 11:10:47
  62. 0versefang45 registered @ 2012-12-03 11:11:24, last login @ 2012-12-03 11:11:24
  63. 0dadradar6 registered @ 2012-12-03 11:11:48, last login @ 2012-12-03 11:11:48
  64. 0stream46sink registered @ 2012-12-03 11:12:21, last login @ 2012-12-03 11:12:21
  65. 0dewitaly7 registered @ 2012-12-03 11:12:49, last login @ 2012-12-03 11:12:49
  66. 0icefiber2 registered @ 2012-12-03 11:12:50, last login @ 2012-12-03 11:12:50
  67. 0ton9sister registered @ 2012-12-03 11:13:08, last login @ 2012-12-03 11:13:08
  68. 0bass9cousin registered @ 2012-12-03 11:13:35, last login @ 2012-12-03 11:13:35
  69. 0pestagenda65 registered @ 2012-12-03 11:13:40, last login @ 2012-12-03 11:13:40
  70. 0tent2jam registered @ 2012-12-03 11:14:04, last login @ 2012-12-03 11:14:04
  71. 0iris69wallet registered @ 2012-12-03 11:14:31, last login @ 2012-12-03 11:14:31
  72. 0coastline20 registered @ 2012-12-03 11:14:40, last login @ 2012-12-03 11:14:40
  73. 0tinmeal6 registered @ 2012-12-03 11:14:46, last login @ 2012-12-03 11:14:46
  74. 0curve5catsup registered @ 2012-12-03 11:16:18, last login @ 2012-12-03 11:16:18
  75. 0cactusfield60 registered @ 2012-12-03 11:16:28, last login @ 2012-12-03 11:16:28
  76. 0Meipeng registered @ 2012-12-03 11:16:29, last login @ 2012-12-03 11:17:55
  77. 0scentclock36 registered @ 2012-12-03 11:17:14, last login @ 2012-12-03 11:17:14
  78. 0teambird8 registered @ 2012-12-03 11:17:28, last login @ 2012-12-03 11:17:28
  79. 0menurabbit52 registered @ 2012-12-03 11:17:38, last login @ 2012-12-03 11:17:38
  80. 0closetcrop06 registered @ 2012-12-03 11:18:44, last login @ 2012-12-03 11:18:44
  81. 0colon05bird registered @ 2012-12-03 11:19:01, last login @ 2012-12-03 11:19:01
  82. 0fatherwax8 registered @ 2012-12-03 11:19:13, last login @ 2012-12-03 11:51:07
  83. 0shadow3botany registered @ 2012-12-03 11:19:25, last login @ 2012-12-03 11:19:25
  84. 0lilaccircle9 registered @ 2012-12-03 11:20:06, last login @ 2012-12-03 11:20:06
  85. 0sshockrodriguez registered @ 2012-12-03 11:22:11, last login @ 2012-12-03 11:22:11
  86. 0start69server registered @ 2012-12-03 11:22:20, last login @ 2012-12-03 11:22:20
  87. 0DarrenHMasterson registered @ 2012-12-03 11:22:31, last login @ 2012-12-03 11:22:31
  88. 0couchwhip93 registered @ 2012-12-03 11:22:41, last login @ 2012-12-03 11:22:41
  89. 0zaidawdrh0nwja registered @ 2012-12-03 11:23:14, last login @ 2012-12-03 11:23:14
  90. 0syrialaura03 registered @ 2012-12-03 11:23:55, last login @ 2012-12-03 11:23:55
  91. 0fedorwdshfe6ss registered @ 2012-12-03 11:24:21, last login @ 2012-12-03 11:24:21
  92. 0templefire7 registered @ 2012-12-03 11:24:53, last login @ 2012-12-03 11:45:46
  93. 0bordersphere23 registered @ 2012-12-03 11:26:16, last login @ 2012-12-03 11:26:16
  94. 0syrup27brake registered @ 2012-12-03 11:27:15, last login @ 2012-12-03 11:27:15
  95. 0dead67kitty registered @ 2012-12-03 11:27:31, last login @ 2012-12-03 11:27:31
  96. 0liver4leek registered @ 2012-12-03 11:27:41, last login @ 2012-12-03 11:27:41
  97. 0lillyhmma07p10 registered @ 2012-12-03 11:29:10, last login @ 2012-12-03 11:29:10
  98. 0greecetouch1 registered @ 2012-12-03 11:29:29, last login @ 2012-12-03 11:29:29
  99. 0namesteam64 registered @ 2012-12-03 11:29:39, last login @ 2012-12-03 11:29:39
  100. 0l6qp6kg392f registered @ 2012-12-03 11:30:21, last login @ 2012-12-03 11:30:21
  101. 0routesilver3 registered @ 2012-12-03 11:31:17, last login @ 2012-12-03 11:31:17

More...

[4755] [4754] [4753] [4752] [4751] [4750] [4749] [4748] [4747] [4746] [4745] [4744] [4743] [4742] [4741] [4740] [4739] [4738] [4737] [4736] ...[1]
Back to Top